createdAt,value
2022-10-17T00:04:43.574Z,11.52
2022-10-17T00:09:46.570Z,11.40
2022-10-17T00:14:49.567Z,11.30
2022-10-17T00:19:52.570Z,11.20
2022-10-17T00:24:55.722Z,11.26
2022-10-17T00:29:59.602Z,11.20
2022-10-17T00:35:03.161Z,11.10
2022-10-17T00:40:08.051Z,11.00
2022-10-17T00:45:24.903Z,10.90
2022-10-17T00:50:28.861Z,10.80
2022-10-17T00:55:39.160Z,10.80
2022-10-17T01:00:44.352Z,10.80
2022-10-17T01:05:47.670Z,10.80
2022-10-17T01:11:30.201Z,10.70
2022-10-17T01:17:24.807Z,10.50
2022-10-17T01:22:41.431Z,10.40
2022-10-17T01:28:19.828Z,10.30
2022-10-17T01:33:47.523Z,10.40
2022-10-17T01:39:12.145Z,10.40
2022-10-17T01:44:37.261Z,10.30
2022-10-17T01:49:45.194Z,10.20
2022-10-17T01:54:57.107Z,10.10
2022-10-17T02:00:03.250Z,10.00
2022-10-17T02:05:07.694Z,10.06
2022-10-17T02:10:38.535Z,10.00
2022-10-17T02:16:14.664Z,9.90
2022-10-17T02:21:55.968Z,9.80
2022-10-17T02:27:46.583Z,9.66
2022-10-17T02:33:02.142Z,9.60
2022-10-17T02:38:10.743Z,9.60
2022-10-17T02:43:14.847Z,9.60
2022-10-17T02:48:42.698Z,9.50
2022-10-17T02:54:17.370Z,9.40
2022-10-17T02:59:25.265Z,9.34
2022-10-17T03:04:28.216Z,9.48
2022-10-17T03:09:31.124Z,9.50
2022-10-17T03:14:34.108Z,9.44
2022-10-17T03:19:37.073Z,9.40
2022-10-17T03:24:39.958Z,9.32
2022-10-17T03:29:42.837Z,9.40
2022-10-17T03:34:46.119Z,9.40
2022-10-17T03:39:49.277Z,9.30
2022-10-17T03:44:52.159Z,9.20
2022-10-17T03:49:55.092Z,9.14
2022-10-17T03:54:58.136Z,9.10
2022-10-17T04:00:01.140Z,9.20
2022-10-17T04:05:04.928Z,9.20
2022-10-17T04:10:08.892Z,9.20
2022-10-17T04:15:12.527Z,9.12
2022-10-17T04:20:15.616Z,9.10
2022-10-17T04:25:18.626Z,9.00
2022-10-17T04:30:21.935Z,9.00
2022-10-17T04:35:24.939Z,9.10
2022-10-17T04:40:28.038Z,9.08
2022-10-17T04:45:31.063Z,9.00
2022-10-17T04:50:34.043Z,8.98
2022-10-17T04:55:38.824Z,8.90
2022-10-17T05:00:42.082Z,8.82
2022-10-17T05:05:45.143Z,8.80
2022-10-17T05:10:48.238Z,8.90
2022-10-17T05:15:51.313Z,9.00
2022-10-17T05:20:54.831Z,8.90
2022-10-17T05:25:57.938Z,8.88
2022-10-17T05:31:10.238Z,8.80
2022-10-17T05:36:13.272Z,8.80
2022-10-17T05:41:16.284Z,8.90
2022-10-17T05:46:19.274Z,8.90
2022-10-17T05:51:22.309Z,8.90
2022-10-17T05:56:25.269Z,8.90
2022-10-17T06:01:28.729Z,8.90
2022-10-17T06:06:31.702Z,8.90
2022-10-17T06:11:36.035Z,9.10
2022-10-17T06:16:38.972Z,9.20
2022-10-17T06:21:41.993Z,9.14
2022-10-17T06:26:44.999Z,9.20
2022-10-17T06:31:47.996Z,9.20
2022-10-17T06:36:51.084Z,9.40
2022-10-17T06:41:54.098Z,9.60
2022-10-17T06:46:59.086Z,9.90
2022-10-17T06:52:02.011Z,10.02
2022-10-17T06:57:04.998Z,10.20
2022-10-17T07:02:11.018Z,10.30
2022-10-17T07:07:13.980Z,10.60
2022-10-17T07:12:16.929Z,10.80
2022-10-17T07:17:20.031Z,10.98
2022-10-17T07:22:22.993Z,11.10
2022-10-17T07:27:25.943Z,11.20
2022-10-17T07:32:28.872Z,11.30
2022-10-17T07:37:32.399Z,11.40
2022-10-17T07:47:47.315Z,11.90
2022-10-17T07:52:50.796Z,12.10
2022-10-17T07:57:53.693Z,12.30
2022-10-17T08:02:56.622Z,12.50
2022-10-17T08:08:00.020Z,12.64
2022-10-17T08:13:03.497Z,12.90
2022-10-17T08:18:06.616Z,13.12
2022-10-17T08:23:09.585Z,13.32
2022-10-17T08:28:12.553Z,13.58
2022-10-17T08:33:15.487Z,13.70
2022-10-17T08:38:20.996Z,13.90
2022-10-17T08:43:38.432Z,14.02
2022-10-17T08:48:46.851Z,14.30
2022-10-17T08:53:52.389Z,14.30
2022-10-17T08:58:55.446Z,14.20
2022-10-17T09:04:19.717Z,14.20
2022-10-17T09:10:05.164Z,14.30
2022-10-17T09:15:52.644Z,14.64
2022-10-17T09:21:09.637Z,14.96
2022-10-17T09:26:12.871Z,15.20
2022-10-17T09:31:43.504Z,15.30
2022-10-17T09:36:46.427Z,15.50
2022-10-17T09:41:57.097Z,15.80
2022-10-17T09:47:31.327Z,16.02
2022-10-17T09:52:48.865Z,16.30
2022-10-17T09:57:57.422Z,16.48
2022-10-17T10:03:16.288Z,16.80
2022-10-17T10:08:20.245Z,17.00
2022-10-17T10:13:27.488Z,17.10
2022-10-17T10:18:36.522Z,17.30
2022-10-17T10:23:43.021Z,17.50
2022-10-17T10:28:54.246Z,17.80
2022-10-17T10:34:00.680Z,18.00
2022-10-17T10:39:26.840Z,18.10
2022-10-17T10:44:33.426Z,18.26
2022-10-17T10:49:43.015Z,18.40
2022-10-17T10:55:07.386Z,18.60
2022-10-17T11:00:21.127Z,18.80
2022-10-17T11:06:00.844Z,19.00
2022-10-17T11:11:23.902Z,19.10
2022-10-17T11:16:40.235Z,19.30
2022-10-17T11:21:55.835Z,19.50
2022-10-17T11:27:06.026Z,19.80
2022-10-17T11:32:23.101Z,19.92
2022-10-17T11:37:34.977Z,20.10
2022-10-17T11:43:03.334Z,20.22
2022-10-17T11:48:39.852Z,20.40
2022-10-17T11:53:57.614Z,20.68
2022-10-17T11:59:19.922Z,20.90
2022-10-17T12:05:05.875Z,21.00
2022-10-17T12:10:48.655Z,21.10
2022-10-17T12:15:51.781Z,21.20
2022-10-17T12:21:00.206Z,21.30
2022-10-17T12:26:07.537Z,21.40
2022-10-17T12:31:28.531Z,21.50
2022-10-17T12:36:35.686Z,21.50
2022-10-17T12:41:38.633Z,21.40
2022-10-17T12:46:56.451Z,21.40
2022-10-17T12:52:20.981Z,21.70
2022-10-17T12:57:55.785Z,22.20
2022-10-17T13:03:17.662Z,22.30
2022-10-17T13:08:52.207Z,22.30
2022-10-17T13:14:02.240Z,22.50
2022-10-17T13:19:19.063Z,22.70
2022-10-17T13:24:38.253Z,22.70
2022-10-17T13:29:45.101Z,22.68
2022-10-17T13:35:10.438Z,22.50
2022-10-17T13:46:02.307Z,22.30
2022-10-17T13:51:13.348Z,22.30
2022-10-17T13:56:28.811Z,22.40
2022-10-17T14:01:33.076Z,22.40
2022-10-17T14:06:49.307Z,22.50
2022-10-17T14:12:16.649Z,22.50
2022-10-17T14:17:29.241Z,22.60
2022-10-17T14:22:36.994Z,22.50
2022-10-17T14:27:55.978Z,22.40
2022-10-17T14:33:03.567Z,22.40
2022-10-17T14:38:08.021Z,22.20
2022-10-17T14:43:23.961Z,22.00
2022-10-17T14:48:29.514Z,21.80
2022-10-17T14:53:32.713Z,21.60
2022-10-17T14:58:35.615Z,21.50
2022-10-17T15:03:38.552Z,21.40
2022-10-17T15:13:49.409Z,21.50
2022-10-17T15:18:54.255Z,21.30
2022-10-17T15:23:58.119Z,21.20
2022-10-17T15:29:02.420Z,21.00
2022-10-17T15:34:05.340Z,20.88
2022-10-17T15:39:10.915Z,20.80
2022-10-17T15:44:15.282Z,20.70
2022-10-17T15:49:20.076Z,20.50
2022-10-17T15:54:22.999Z,20.30
2022-10-17T15:59:34.479Z,20.16
2022-10-17T16:04:37.384Z,20.00
2022-10-17T16:09:40.674Z,19.90
2022-10-17T16:14:43.640Z,19.82
2022-10-17T16:19:46.625Z,19.70
2022-10-17T16:24:49.584Z,19.60
2022-10-17T16:29:52.494Z,19.48
2022-10-17T16:34:55.463Z,19.30
2022-10-17T16:39:58.505Z,19.28
2022-10-17T16:45:01.869Z,19.20
2022-10-17T16:50:05.062Z,19.04
2022-10-17T16:55:10.060Z,18.90
2022-10-17T17:00:15.361Z,18.80
2022-10-17T17:05:18.642Z,18.70
2022-10-17T17:10:21.701Z,18.70
2022-10-17T17:15:24.726Z,18.68
2022-10-17T17:20:27.659Z,18.60
2022-10-17T17:25:30.600Z,18.50
2022-10-17T17:30:35.048Z,18.40
2022-10-17T17:35:40.234Z,18.20
2022-10-17T17:40:50.882Z,18.10
2022-10-17T17:45:54.249Z,18.10
2022-10-17T17:50:57.341Z,18.10
2022-10-17T17:56:11.419Z,18.00
2022-10-17T18:01:21.562Z,17.84
2022-10-17T18:06:25.433Z,17.70
2022-10-17T18:11:29.251Z,17.50
2022-10-17T18:16:36.348Z,17.50
2022-10-17T18:21:39.455Z,17.60
2022-10-17T18:26:42.419Z,17.80
2022-10-17T18:31:45.457Z,17.90
2022-10-17T18:36:48.523Z,18.00
2022-10-17T18:41:51.460Z,18.00
2022-10-17T18:46:55.175Z,18.10
2022-10-17T18:51:59.923Z,18.20
2022-10-17T18:57:02.900Z,18.12
2022-10-17T19:02:06.662Z,18.10
2022-10-17T19:07:09.716Z,18.00
2022-10-17T19:12:12.669Z,18.04
2022-10-17T19:17:15.681Z,18.10
2022-10-17T19:22:18.828Z,18.00
2022-10-17T19:27:21.787Z,17.90
2022-10-17T19:32:24.877Z,17.90
2022-10-17T19:37:28.083Z,17.90
2022-10-17T19:42:31.652Z,17.90
2022-10-17T19:47:35.746Z,17.82
2022-10-17T19:52:38.654Z,17.80
2022-10-17T19:57:41.718Z,17.70
2022-10-17T20:02:44.714Z,17.70
2022-10-17T20:07:47.680Z,17.70
2022-10-17T20:12:50.597Z,17.70
2022-10-17T20:17:53.580Z,17.60
2022-10-17T20:22:56.689Z,17.60
2022-10-17T20:27:59.673Z,17.68
2022-10-17T20:33:02.643Z,17.60
2022-10-17T20:38:05.630Z,17.60
2022-10-17T20:43:14.033Z,17.50
2022-10-17T20:48:16.967Z,17.50
2022-10-17T20:53:37.545Z,17.50
2022-10-17T20:58:40.796Z,17.50
2022-10-17T21:03:46.418Z,17.40
2022-10-17T21:08:54.051Z,17.40
2022-10-17T21:14:08.121Z,17.36
2022-10-17T21:19:13.161Z,17.40
2022-10-17T21:24:18.312Z,17.40
2022-10-17T21:29:23.235Z,17.30
2022-10-17T21:34:26.213Z,17.20
2022-10-17T21:39:29.448Z,17.20
2022-10-17T21:44:32.489Z,17.20
2022-10-17T21:49:35.546Z,17.10
2022-10-17T21:54:38.481Z,17.00
2022-10-17T21:59:41.508Z,16.90
2022-10-17T22:04:44.462Z,16.90
2022-10-17T22:09:47.426Z,16.90
2022-10-17T22:14:50.364Z,16.80
2022-10-17T22:19:53.369Z,16.70
2022-10-17T22:24:56.360Z,16.68
2022-10-17T22:29:59.279Z,16.70
2022-10-17T22:35:02.210Z,16.60
2022-10-17T22:40:07.386Z,16.50
2022-10-17T22:45:10.593Z,16.50
2022-10-17T22:50:13.949Z,16.50
2022-10-17T22:55:17.185Z,16.50
2022-10-17T23:00:20.343Z,16.40
2022-10-17T23:05:23.261Z,16.36
2022-10-17T23:10:27.541Z,16.40
2022-10-17T23:15:32.826Z,16.40
2022-10-17T23:20:37.843Z,16.30
2022-10-17T23:25:41.311Z,16.20
2022-10-17T23:30:44.662Z,16.10
2022-10-17T23:35:47.625Z,16.20
2022-10-17T23:40:50.566Z,16.14
2022-10-17T23:45:53.458Z,16.10
2022-10-17T23:50:57.221Z,16.00
2022-10-17T23:56:00.166Z,15.90
